createdAt,value
2022-08-03T00:01:27.923Z,73.59
2022-08-03T00:03:54.516Z,73.37
2022-08-03T00:06:21.252Z,73.03
2022-08-03T00:08:47.947Z,73.23
2022-08-03T00:11:14.731Z,73.38
2022-08-03T00:13:41.530Z,73.02
2022-08-03T00:16:10.840Z,73.21
2022-08-03T00:18:38.144Z,73.53
2022-08-03T00:21:05.881Z,73.54
2022-08-03T00:23:51.682Z,73.17
2022-08-03T00:26:20.619Z,72.82
2022-08-03T00:28:47.488Z,73.97
2022-08-03T00:31:14.317Z,73.47
2022-08-03T00:33:58.180Z,73.64
2022-08-03T00:36:27.634Z,73.86
2022-08-03T00:38:54.567Z,73.79
2022-08-03T00:41:21.396Z,73.37
2022-08-03T00:43:48.269Z,73.80
2022-08-03T00:46:20.561Z,73.69
2022-08-03T00:48:53.266Z,73.94
2022-08-03T00:51:24.085Z,74.00
2022-08-03T00:53:51.217Z,74.09
2022-08-03T00:56:18.241Z,73.83
2022-08-03T00:58:46.200Z,73.66
2022-08-03T01:01:13.172Z,74.15
2022-08-03T01:03:40.298Z,74.54
2022-08-03T01:06:16.112Z,74.68
2022-08-03T01:09:10.656Z,74.18
2022-08-03T01:12:01.069Z,74.74
2022-08-03T01:14:34.030Z,74.44
2022-08-03T01:17:14.942Z,74.82
2022-08-03T01:20:00.548Z,74.59
2022-08-03T01:22:31.569Z,75.11
2022-08-03T01:25:16.333Z,74.94
2022-08-03T01:28:11.531Z,75.16
2022-08-03T01:30:40.451Z,74.83
2022-08-03T01:33:24.351Z,75.09
2022-08-03T01:36:00.823Z,75.40
2022-08-03T01:38:29.011Z,74.97
2022-08-03T01:40:57.098Z,75.08
2022-08-03T01:44:27.144Z,75.63
2022-08-03T01:46:17.788Z,75.37
2022-08-03T01:48:47.526Z,75.60
2022-08-03T01:51:16.856Z,75.38
2022-08-03T01:53:44.634Z,75.39
2022-08-03T01:56:13.487Z,75.49
2022-08-03T01:58:42.300Z,75.04
2022-08-03T02:01:10.409Z,75.70
2022-08-03T02:04:00.226Z,75.67
2022-08-03T02:07:02.847Z,75.05
2022-08-03T02:09:17.423Z,74.80
2022-08-03T02:11:46.728Z,75.28
2022-08-03T02:14:14.828Z,74.46
2022-08-03T02:16:43.906Z,74.98
2022-08-03T02:19:11.761Z,74.77
2022-08-03T02:21:56.316Z,74.80
2022-08-03T02:24:25.546Z,74.80
2022-08-03T02:26:55.725Z,74.48
2022-08-03T02:29:39.247Z,73.94
2022-08-03T02:32:14.477Z,74.38
2022-08-03T02:34:45.277Z,73.91
2022-08-03T02:37:13.630Z,73.91
2022-08-03T02:39:42.979Z,73.98
2022-08-03T02:42:12.926Z,73.97
2022-08-03T02:44:41.672Z,73.94
2022-08-03T02:47:11.133Z,73.17
2022-08-03T02:49:51.368Z,73.79
2022-08-03T02:52:21.714Z,73.05
2022-08-03T02:54:51.267Z,73.37
2022-08-03T02:57:21.734Z,73.13
2022-08-03T02:59:49.790Z,73.04
2022-08-03T03:02:18.423Z,72.65
2022-08-03T03:04:59.717Z,72.64
2022-08-03T03:07:39.794Z,73.19
2022-08-03T03:10:21.708Z,73.16
2022-08-03T03:12:52.065Z,73.11
2022-08-03T03:15:19.118Z,72.87
2022-08-03T03:17:46.992Z,72.67
2022-08-03T03:20:15.787Z,72.54
2022-08-03T03:22:58.385Z,72.73
2022-08-03T03:25:25.217Z,72.73
2022-08-03T03:27:52.361Z,72.79
2022-08-03T03:30:19.236Z,72.68
2022-08-03T03:32:46.047Z,72.38
2022-08-03T03:35:14.318Z,72.60
2022-08-03T03:37:40.973Z,72.38
2022-08-03T03:40:09.110Z,72.32
2022-08-03T03:42:36.174Z,72.46
2022-08-03T03:45:07.179Z,72.54
2022-08-03T03:47:37.874Z,72.28
2022-08-03T03:50:06.843Z,72.05
2022-08-03T03:52:34.142Z,72.27
2022-08-03T03:55:01.509Z,72.51
2022-08-03T03:57:29.696Z,72.51
2022-08-03T03:59:56.471Z,72.67
2022-08-03T04:02:23.188Z,72.30
2022-08-03T04:05:08.485Z,72.65
2022-08-03T04:08:10.150Z,71.93
2022-08-03T04:10:58.291Z,72.11
2022-08-03T04:13:27.849Z,72.50
2022-08-03T04:15:57.745Z,72.51
2022-08-03T04:18:28.225Z,72.45
2022-08-03T04:20:59.276Z,71.98
2022-08-03T04:23:27.821Z,72.68
2022-08-03T04:25:56.493Z,72.37
2022-08-03T04:28:30.125Z,72.35
2022-08-03T04:31:01.250Z,72.21
2022-08-03T04:33:32.462Z,71.96
2022-08-03T04:36:03.414Z,72.13
2022-08-03T04:38:44.441Z,72.50
2022-08-03T04:41:12.378Z,72.08
2022-08-03T04:43:42.122Z,72.45
2022-08-03T04:46:09.976Z,72.28
2022-08-03T04:48:36.840Z,72.08
2022-08-03T04:51:04.531Z,72.09
2022-08-03T04:53:31.407Z,71.89
2022-08-03T04:56:05.818Z,72.32
2022-08-03T04:58:33.023Z,71.73
2022-08-03T05:00:59.990Z,72.04
2022-08-03T05:03:26.704Z,71.99
2022-08-03T05:06:09.790Z,72.28
2022-08-03T05:08:46.454Z,72.14
2022-08-03T05:11:16.631Z,71.91
2022-08-03T05:13:44.705Z,72.26
2022-08-03T05:16:12.229Z,72.79
2022-08-03T05:18:38.998Z,72.25
2022-08-03T05:21:05.667Z,72.68
2022-08-03T05:23:32.412Z,72.98
2022-08-03T05:25:59.111Z,72.18
2022-08-03T05:28:26.222Z,72.57
2022-08-03T05:30:53.029Z,72.50
2022-08-03T05:33:19.656Z,72.85
2022-08-03T05:35:57.397Z,72.47
2022-08-03T05:38:33.922Z,73.18
2022-08-03T05:41:23.556Z,73.01
2022-08-03T05:43:53.945Z,72.81
2022-08-03T05:46:21.921Z,73.16
2022-08-03T05:48:48.736Z,73.53
2022-08-03T05:51:15.481Z,73.02
2022-08-03T05:53:43.639Z,73.28
2022-08-03T05:56:14.189Z,73.34
2022-08-03T05:58:45.973Z,73.23
2022-08-03T06:01:12.961Z,73.24
2022-08-03T06:03:40.298Z,72.75
2022-08-03T06:06:07.507Z,72.67
2022-08-03T06:08:35.520Z,72.50
2022-08-03T06:11:02.624Z,72.48
2022-08-03T06:13:29.646Z,72.84
2022-08-03T06:15:56.695Z,72.65
2022-08-03T06:18:24.652Z,72.46
2022-08-03T06:20:52.318Z,72.23
2022-08-03T06:23:19.320Z,72.56
2022-08-03T06:25:47.468Z,72.48
2022-08-03T06:31:03.168Z,71.90
2022-08-03T06:34:30.228Z,72.10
2022-08-03T06:36:16.540Z,72.12
2022-08-03T06:38:43.079Z,71.75
2022-08-03T06:41:09.705Z,71.52
2022-08-03T06:43:38.135Z,71.28
2022-08-03T06:46:24.385Z,71.62
2022-08-03T06:48:51.250Z,71.12
2022-08-03T06:51:18.356Z,71.33
2022-08-03T06:53:45.126Z,70.54
2022-08-03T06:56:11.841Z,70.55
2022-08-03T06:58:38.561Z,70.22
2022-08-03T07:01:05.321Z,70.24
2022-08-03T07:03:32.321Z,70.22
2022-08-03T07:06:00.029Z,69.27
2022-08-03T07:08:33.614Z,69.20
2022-08-03T07:11:01.629Z,69.03
2022-08-03T07:13:28.834Z,69.07
2022-08-03T07:15:58.229Z,68.51
2022-08-03T07:18:29.686Z,68.54
2022-08-03T07:20:58.018Z,68.63
2022-08-03T07:23:25.851Z,67.86
2022-08-03T07:25:53.093Z,68.62
2022-08-03T07:28:23.102Z,68.06
2022-08-03T07:30:49.758Z,67.93
2022-08-03T07:33:16.591Z,67.37
2022-08-03T07:35:43.639Z,67.75
2022-08-03T07:38:10.750Z,67.35
2022-08-03T07:40:43.161Z,67.14
2022-08-03T07:43:12.411Z,67.09
2022-08-03T07:45:39.181Z,67.25
2022-08-03T07:48:11.639Z,67.22
2022-08-03T07:50:39.076Z,67.35
2022-08-03T07:53:05.912Z,67.05
2022-08-03T07:55:32.681Z,67.27
2022-08-03T07:58:09.871Z,67.10
2022-08-03T08:00:37.010Z,66.81
2022-08-03T08:03:04.539Z,66.51
2022-08-03T08:05:31.696Z,66.83
2022-08-03T08:07:58.482Z,66.15
2022-08-03T08:10:25.522Z,66.68
2022-08-03T08:12:52.994Z,66.35
2022-08-03T08:15:19.948Z,66.27
2022-08-03T08:17:55.020Z,66.85
2022-08-03T08:20:27.966Z,66.02
2022-08-03T08:23:19.942Z,66.54
2022-08-03T08:25:52.042Z,66.13
2022-08-03T08:28:32.191Z,66.60
2022-08-03T08:30:59.980Z,66.28
2022-08-03T08:33:37.323Z,65.86
2022-08-03T08:36:15.399Z,66.32
2022-08-03T08:38:44.683Z,66.06
2022-08-03T08:41:13.280Z,65.89
2022-08-03T08:43:40.139Z,65.46
2022-08-03T08:46:10.554Z,65.80
2022-08-03T08:48:42.142Z,64.46
2022-08-03T08:51:11.681Z,64.03
2022-08-03T08:53:41.569Z,63.81
2022-08-03T08:56:12.968Z,63.36
2022-08-03T08:58:47.272Z,62.96
2022-08-03T09:01:13.957Z,62.83
2022-08-03T09:03:41.326Z,62.19
2022-08-03T09:06:08.510Z,61.67
2022-08-03T09:08:35.830Z,61.93
2022-08-03T09:11:03.026Z,61.57
2022-08-03T09:13:31.109Z,61.48
2022-08-03T09:16:19.855Z,61.51
2022-08-03T09:18:50.220Z,61.73
2022-08-03T09:21:34.152Z,61.39
2022-08-03T09:24:05.359Z,60.68
2022-08-03T09:26:35.482Z,60.65
2022-08-03T09:29:08.149Z,60.21
2022-08-03T09:31:44.030Z,59.97
2022-08-03T09:34:16.626Z,59.52
2022-08-03T09:36:51.088Z,59.53
2022-08-03T09:39:40.200Z,58.72
2022-08-03T09:42:15.438Z,58.57
2022-08-03T09:44:44.964Z,57.81
2022-08-03T09:47:13.593Z,57.97
2022-08-03T09:49:41.868Z,57.93
2022-08-03T09:52:31.951Z,57.06
2022-08-03T09:55:02.517Z,57.56
2022-08-03T09:57:33.085Z,57.05
2022-08-03T10:00:13.829Z,56.03
2022-08-03T10:02:42.296Z,56.36
2022-08-03T10:05:19.577Z,55.60
2022-08-03T10:07:48.788Z,55.30
2022-08-03T10:10:30.176Z,55.93
2022-08-03T10:13:00.256Z,55.86
2022-08-03T10:16:24.148Z,54.71
2022-08-03T10:18:14.473Z,54.99
2022-08-03T10:20:49.675Z,54.22
2022-08-03T10:23:18.584Z,54.71
2022-08-03T10:25:52.966Z,54.13
2022-08-03T10:28:21.844Z,52.90
2022-08-03T10:30:52.922Z,51.76
2022-08-03T10:33:50.713Z,50.98
2022-08-03T10:36:13.617Z,50.87
2022-08-03T10:38:54.242Z,49.61
2022-08-03T10:41:23.457Z,50.01
2022-08-03T10:44:10.459Z,50.23
2022-08-03T10:46:44.560Z,49.94
2022-08-03T10:49:21.470Z,50.40
2022-08-03T10:52:05.247Z,50.25
2022-08-03T10:55:10.033Z,50.24
2022-08-03T10:57:58.227Z,50.09
2022-08-03T11:00:28.125Z,49.73
2022-08-03T11:03:13.050Z,49.12
2022-08-03T11:05:42.388Z,49.18
2022-08-03T11:08:23.195Z,48.88
2022-08-03T11:10:53.024Z,49.05
2022-08-03T11:13:22.545Z,49.11
2022-08-03T11:15:52.214Z,48.53
2022-08-03T11:18:23.532Z,48.94
2022-08-03T11:20:59.487Z,48.63
2022-08-03T11:24:05.098Z,48.88
2022-08-03T11:26:36.507Z,49.03
2022-08-03T11:29:29.679Z,49.23
2022-08-03T11:31:57.130Z,48.82
2022-08-03T11:34:24.782Z,47.97
2022-08-03T11:37:30.161Z,48.28
2022-08-03T11:39:58.199Z,48.27
2022-08-03T11:42:25.036Z,47.97
2022-08-03T11:44:53.750Z,47.05
2022-08-03T11:47:21.843Z,47.47
2022-08-03T11:49:50.573Z,47.33
2022-08-03T11:52:18.253Z,47.01
2022-08-03T11:54:46.180Z,46.83
2022-08-03T11:57:13.514Z,45.63
2022-08-03T11:59:40.288Z,44.86
2022-08-03T12:02:16.155Z,44.22
2022-08-03T12:05:01.381Z,44.06
2022-08-03T12:08:04.566Z,44.92
2022-08-03T12:10:16.051Z,45.08
2022-08-03T12:12:46.799Z,45.10
2022-08-03T12:15:13.563Z,44.89
2022-08-03T12:17:41.939Z,45.40
2022-08-03T12:20:10.319Z,45.99
2022-08-03T12:22:39.818Z,46.08
2022-08-03T12:25:10.313Z,45.88
2022-08-03T12:27:37.059Z,46.95
2022-08-03T12:30:05.012Z,46.17
2022-08-03T12:32:31.802Z,47.36
2022-08-03T12:35:02.031Z,47.20
2022-08-03T12:37:29.757Z,47.00
2022-08-03T12:40:09.973Z,46.97
2022-08-03T12:42:39.609Z,47.25
2022-08-03T12:45:27.627Z,47.97
2022-08-03T12:47:57.095Z,47.98
2022-08-03T12:50:32.857Z,47.34
2022-08-03T12:53:00.683Z,47.26
2022-08-03T12:55:57.128Z,46.69
2022-08-03T12:58:34.243Z,46.91
2022-08-03T13:01:04.842Z,46.56
2022-08-03T13:03:42.777Z,46.17
2022-08-03T13:06:17.675Z,46.67
2022-08-03T13:08:46.182Z,46.78
2022-08-03T13:11:57.218Z,47.08
2022-08-03T13:14:19.681Z,46.39
2022-08-03T13:16:47.615Z,45.16
2022-08-03T13:19:15.527Z,45.35
2022-08-03T13:21:53.834Z,44.97
2022-08-03T13:24:31.590Z,45.21
2022-08-03T13:27:22.551Z,45.76
2022-08-03T13:29:48.395Z,46.21
2022-08-03T13:32:14.937Z,46.16
2022-08-03T13:34:41.584Z,46.03
2022-08-03T13:37:09.639Z,45.95
2022-08-03T13:39:57.339Z,45.71
2022-08-03T13:42:23.606Z,44.95
2022-08-03T13:44:50.926Z,44.44
2022-08-03T13:47:18.179Z,43.97
2022-08-03T13:50:00.516Z,43.50
2022-08-03T13:52:34.112Z,43.27
2022-08-03T13:55:01.929Z,42.90
2022-08-03T13:58:03.181Z,42.96
2022-08-03T14:00:27.134Z,42.62
2022-08-03T14:03:06.614Z,42.04
2022-08-03T14:05:39.255Z,41.77
2022-08-03T14:08:07.193Z,41.89
2022-08-03T14:10:35.991Z,41.84
2022-08-03T14:13:06.061Z,41.26
2022-08-03T14:15:37.936Z,41.57
2022-08-03T14:18:06.238Z,41.58
2022-08-03T14:20:37.799Z,41.77
2022-08-03T14:23:12.975Z,42.18
2022-08-03T14:25:50.416Z,42.47
2022-08-03T14:28:20.907Z,43.30
2022-08-03T14:30:48.747Z,43.42
2022-08-03T14:33:15.808Z,44.05
2022-08-03T14:35:42.826Z,44.37
2022-08-03T14:38:09.481Z,44.24
2022-08-03T14:40:36.272Z,44.13
2022-08-03T14:43:02.945Z,44.77
2022-08-03T14:45:29.568Z,44.48
2022-08-03T14:49:02.650Z,44.25
2022-08-03T14:50:51.513Z,45.02
2022-08-03T14:53:20.146Z,44.96
2022-08-03T14:55:51.773Z,44.15
2022-08-03T14:58:23.697Z,44.42
2022-08-03T15:00:51.883Z,44.26
2022-08-03T15:03:23.399Z,44.77
2022-08-03T15:05:56.008Z,44.40
2022-08-03T15:08:24.302Z,44.65
2022-08-03T15:10:53.267Z,45.09
2022-08-03T15:13:23.853Z,45.26
2022-08-03T15:15:51.863Z,45.62
2022-08-03T15:18:20.444Z,45.78
2022-08-03T15:20:51.141Z,45.71
2022-08-03T15:23:18.755Z,45.58
2022-08-03T15:26:03.923Z,45.76
2022-08-03T15:28:37.307Z,45.73
2022-08-03T15:31:04.729Z,46.07
2022-08-03T15:33:31.873Z,46.28
2022-08-03T15:36:00.517Z,46.76
2022-08-03T15:38:27.287Z,47.14
2022-08-03T15:40:57.094Z,46.95
2022-08-03T15:43:23.970Z,46.91
2022-08-03T15:46:12.766Z,47.45
2022-08-03T15:48:38.386Z,47.35
2022-08-03T15:51:05.778Z,48.05
2022-08-03T15:53:33.751Z,47.99
2022-08-03T15:56:02.046Z,48.24
2022-08-03T15:59:09.649Z,48.36
2022-08-03T16:01:20.358Z,48.99
2022-08-03T16:03:47.586Z,48.95
2022-08-03T16:06:14.352Z,48.36
2022-08-03T16:08:41.171Z,48.87
2022-08-03T16:11:08.019Z,49.48
2022-08-03T16:14:12.871Z,49.21
2022-08-03T16:16:21.634Z,49.10
2022-08-03T16:18:48.413Z,49.11
2022-08-03T16:21:15.610Z,48.55
2022-08-03T16:23:47.076Z,49.46
2022-08-03T16:26:14.116Z,49.02
2022-08-03T16:28:40.875Z,49.34
2022-08-03T16:31:09.392Z,49.67
2022-08-03T16:33:36.140Z,49.66
2022-08-03T16:36:03.050Z,49.74
2022-08-03T16:38:32.572Z,50.08
2022-08-03T16:40:59.351Z,50.05
2022-08-03T16:43:26.343Z,50.24
2022-08-03T16:45:53.281Z,50.55
2022-08-03T16:48:20.250Z,50.99
2022-08-03T16:50:47.536Z,50.51
2022-08-03T16:53:16.676Z,50.63
2022-08-03T16:55:53.448Z,50.31
2022-08-03T16:58:41.704Z,50.48
2022-08-03T17:01:24.129Z,50.48
2022-08-03T17:04:03.123Z,50.18
2022-08-03T17:06:36.855Z,51.36
2022-08-03T17:09:13.467Z,51.20
2022-08-03T17:11:47.839Z,51.20
2022-08-03T17:14:17.584Z,50.31
2022-08-03T17:16:54.697Z,50.58
2022-08-03T17:19:26.718Z,50.07
2022-08-03T17:22:10.805Z,50.61
2022-08-03T17:24:44.460Z,50.72
2022-08-03T17:28:41.437Z,50.19
2022-08-03T17:30:13.603Z,49.79
2022-08-03T17:32:56.856Z,50.41
2022-08-03T17:35:36.674Z,50.34
2022-08-03T17:38:13.839Z,50.28
2022-08-03T17:40:48.138Z,50.67
2022-08-03T17:44:13.250Z,50.76
2022-08-03T17:46:10.617Z,51.14
2022-08-03T17:48:41.368Z,51.34
2022-08-03T17:51:26.685Z,51.07
2022-08-03T17:54:18.030Z,51.44
2022-08-03T18:00:33.355Z,51.31
2022-08-03T18:03:24.865Z,51.83
2022-08-03T18:06:11.276Z,51.66
2022-08-03T18:08:50.625Z,51.98
2022-08-03T18:11:21.886Z,52.19
2022-08-03T18:14:16.991Z,53.00
2022-08-03T18:16:57.638Z,52.98
2022-08-03T18:20:02.635Z,53.50
2022-08-03T18:22:15.644Z,53.61
2022-08-03T18:24:42.445Z,54.01
2022-08-03T18:27:13.760Z,54.40
2022-08-03T18:29:43.364Z,54.11
2022-08-03T18:32:16.824Z,54.73
2022-08-03T18:34:53.840Z,55.21
2022-08-03T18:37:25.230Z,55.62
2022-08-03T18:39:55.554Z,55.86
2022-08-03T18:42:26.141Z,56.02
2022-08-03T18:44:55.860Z,56.32
2022-08-03T18:47:50.617Z,56.49
2022-08-03T18:50:29.009Z,57.02
2022-08-03T18:53:19.612Z,56.80
2022-08-03T18:56:02.442Z,57.14
2022-08-03T18:58:48.366Z,57.17
2022-08-03T19:01:57.706Z,57.69
2022-08-03T19:04:35.351Z,57.67
2022-08-03T19:07:09.211Z,57.44
2022-08-03T19:09:48.006Z,58.04
2022-08-03T19:12:28.290Z,58.14
2022-08-03T19:15:04.494Z,58.19
2022-08-03T19:17:36.091Z,57.97
2022-08-03T19:20:06.329Z,58.73
2022-08-03T19:22:33.443Z,58.90
2022-08-03T19:25:02.336Z,58.33
2022-08-03T19:27:31.148Z,58.55
2022-08-03T19:30:03.900Z,59.10
2022-08-03T19:32:32.633Z,58.72
2022-08-03T19:35:01.790Z,59.82
2022-08-03T19:37:38.723Z,60.06
2022-08-03T19:40:10.419Z,59.62
2022-08-03T19:43:00.285Z,60.04
2022-08-03T19:46:05.440Z,60.18
2022-08-03T19:48:28.917Z,60.87
2022-08-03T19:50:58.024Z,60.67
2022-08-03T19:53:35.268Z,61.17
2022-08-03T19:56:06.443Z,61.23
2022-08-03T19:58:35.421Z,61.26
2022-08-03T20:01:19.440Z,61.60
2022-08-03T20:03:49.554Z,61.66
2022-08-03T20:06:17.843Z,61.71
2022-08-03T20:08:45.510Z,62.16
2022-08-03T20:11:18.086Z,62.49
2022-08-03T20:13:48.385Z,62.85
2022-08-03T20:16:15.098Z,62.75
2022-08-03T20:18:42.777Z,62.71
2022-08-03T20:21:14.892Z,63.32
2022-08-03T20:24:01.874Z,63.35
2022-08-03T20:26:31.684Z,63.52
2022-08-03T20:29:09.863Z,63.96
2022-08-03T20:31:37.584Z,63.91
2022-08-03T20:34:06.274Z,63.70
2022-08-03T20:36:32.871Z,63.98
2022-08-03T20:38:59.652Z,64.67
2022-08-03T20:41:26.524Z,64.18
2022-08-03T20:43:53.146Z,64.52
2022-08-03T20:46:32.853Z,64.74
2022-08-03T20:49:05.729Z,65.08
2022-08-03T20:51:50.471Z,64.86
2022-08-03T20:54:29.733Z,65.19
2022-08-03T20:57:00.010Z,64.78
2022-08-03T20:59:36.883Z,65.41
2022-08-03T21:02:19.639Z,65.59
2022-08-03T21:04:56.003Z,65.97
2022-08-03T21:07:24.294Z,65.97
2022-08-03T21:09:52.747Z,66.03
2022-08-03T21:12:51.226Z,66.01
2022-08-03T21:12:55.925Z,51.68
2022-08-03T21:16:06.456Z,66.40
2022-08-03T21:18:11.847Z,66.11
2022-08-03T21:20:38.811Z,66.31
2022-08-03T21:23:09.124Z,66.36
2022-08-03T21:25:37.947Z,67.16
2022-08-03T21:28:07.577Z,67.35
2022-08-03T21:30:35.160Z,67.74
2022-08-03T21:33:02.209Z,67.38
2022-08-03T21:35:28.727Z,67.60
2022-08-03T21:38:13.806Z,67.81
2022-08-03T21:40:41.187Z,67.65
2022-08-03T21:43:08.354Z,68.16
2022-08-03T21:45:57.720Z,68.43
2022-08-03T21:48:25.590Z,68.31
2022-08-03T21:50:52.659Z,68.41
2022-08-03T21:53:19.851Z,68.17
2022-08-03T21:55:58.571Z,68.84
2022-08-03T21:58:30.964Z,68.74
2022-08-03T22:00:59.291Z,68.81
2022-08-03T22:03:26.622Z,68.93
2022-08-03T22:05:54.724Z,68.92
2022-08-03T22:08:34.397Z,69.30
2022-08-03T22:11:04.358Z,69.63
2022-08-03T22:13:43.603Z,69.42
2022-08-03T22:16:11.907Z,69.59
2022-08-03T22:18:41.058Z,69.79
2022-08-03T22:21:09.866Z,69.90
2022-08-03T22:23:48.816Z,69.21
2022-08-03T22:26:34.120Z,67.71
2022-08-03T22:29:01.960Z,66.39
2022-08-03T22:31:56.886Z,64.93
2022-08-03T22:34:15.364Z,63.19
2022-08-03T22:36:42.698Z,62.44
2022-08-03T22:39:09.855Z,61.47
2022-08-03T22:41:36.587Z,60.91
2022-08-03T22:44:04.773Z,60.56
2022-08-03T22:46:33.834Z,60.33
2022-08-03T22:49:01.414Z,59.96
2022-08-03T22:51:28.276Z,59.32
2022-08-03T22:53:55.173Z,59.56
2022-08-03T22:56:22.291Z,59.17
2022-08-03T22:58:48.884Z,59.26
2022-08-03T23:01:21.116Z,59.35
2022-08-03T23:03:58.617Z,59.46
2022-08-03T23:06:32.372Z,59.20
2022-08-03T23:08:59.029Z,59.62
2022-08-03T23:11:27.136Z,59.57
2022-08-03T23:13:56.508Z,59.84
2022-08-03T23:16:28.688Z,59.35
2022-08-03T23:18:57.971Z,59.67
2022-08-03T23:21:53.237Z,59.34
2022-08-03T23:24:17.736Z,59.53
2022-08-03T23:26:53.769Z,59.65
2022-08-03T23:29:21.688Z,59.98
2022-08-03T23:31:49.717Z,60.12
2022-08-03T23:34:36.279Z,59.87
2022-08-03T23:37:05.482Z,60.07
2022-08-03T23:39:35.307Z,60.30
2022-08-03T23:42:03.058Z,60.11
2022-08-03T23:44:31.971Z,60.31
2022-08-03T23:46:58.594Z,60.26
2022-08-03T23:49:25.171Z,60.38
2022-08-03T23:52:07.294Z,60.33
2022-08-03T23:54:33.893Z,60.58
2022-08-03T23:57:13.279Z,60.15
